Time;durP1;ratioP1;P1;durP2;ratioP2;P2;SDS_P1;SDS_P2;PMS_P1;PMS_P2;Temp;Humidity;BMP_temperature;BMP_pressure;BME280_temperature;BME280_humidity;BME280_pressure;Samples;Min_cycle;Max_cycle;Signal;HPM_P1;HPM_P2
2022/01/09 00:01:45;;;;;;;;;;;;;;;20.31;40.05;99491.72;7281017;19;152010;-51
2022/01/09 00:04:13;;;;;;;;;;;;;;;20.29;39.89;99494.03;7283219;19;152653;-51
2022/01/09 00:06:40;;;;;;;;;;;;;;;20.29;39.39;99496.84;7278242;19;154835;-52
2022/01/09 00:09:07;;;;;;;;;;;;;;;20.25;39.52;99500.69;7284928;19;152696;-51
2022/01/09 00:11:34;;;;;;;;;;;;;;;20.22;39.59;99502.16;7276101;19;153999;-51
2022/01/09 00:14:01;;;;;;;;;;;;;;;20.22;39.51;99506.94;7279634;19;152198;-51
2022/01/09 00:16:28;;;;;;;;;;;;;;;20.24;39.71;99518.66;7279213;19;152941;-50
2022/01/09 00:18:56;;;;;;;;;;;;;;;20.26;39.85;99524.75;7278727;19;154512;-50
2022/01/09 00:21:24;;;;;;;;;;;;;;;20.30;39.78;99525.75;7283698;19;151836;-50
2022/01/09 00:23:51;;;;;;;;;;;;;;;20.32;39.98;99520.59;7280936;19;153456;-50
2022/01/09 00:26:20;;;;;;;;;;;;;;;20.35;39.80;99526.34;7261862;19;152816;-51
2022/01/09 00:28:55;;;;;;;;;;;;;;;20.39;39.40;99532.13;7273219;19;151817;-51
2022/01/09 00:31:22;;;;;;;;;;;;;;;20.42;39.40;99537.03;7288352;19;153573;-52
2022/01/09 00:33:49;;;;;;;;;;;;;;;20.45;39.35;99522.31;7283487;19;151846;-50
2022/01/09 00:36:16;;;;;;;;;;;;;;;20.49;39.28;99534.47;7281669;19;152766;-51
2022/01/09 00:38:46;;;;;;;;;;;;;;;20.53;39.42;99543.88;7280783;19;153061;-51
2022/01/09 00:41:13;;;;;;;;;;;;;;;20.56;39.42;99539.56;7280846;19;151803;-51
2022/01/09 00:43:40;;;;;;;;;;;;;;;20.59;39.44;99553.72;7283459;19;153643;-51
2022/01/09 00:46:09;;;;;;;;;;;;;;;20.64;39.15;99547.06;7282173;19;154627;-51
2022/01/09 00:48:36;;;;;;;;;;;;;;;20.66;39.31;99550.38;7282623;19;151516;-51
2022/01/09 00:51:03;;;;;;;;;;;;;;;20.69;39.44;99553.31;7280852;19;152936;-50
2022/01/09 00:53:31;;;;;;;;;;;;;;;20.73;39.17;99557.06;7289607;19;153463;-51
2022/01/09 00:55:58;;;;;;;;;;;;;;;20.75;39.46;99554.75;7282336;19;153092;-51
2022/01/09 00:58:25;;;;;;;;;;;;;;;20.78;39.21;99554.06;7279264;19;152865;-51
2022/01/09 01:00:53;;;;;;;;;;;;;;;20.81;39.14;99564.59;7276850;19;153409;-50
2022/01/09 01:03:20;;;;;;;;;;;;;;;20.85;39.09;99576.75;7278897;19;152913;-51
2022/01/09 01:05:49;;;;;;;;;;;;;;;20.88;39.26;99571.63;7281123;19;153769;-51
2022/01/09 01:08:22;;;;;;;;;;;;;;;20.91;39.26;99570.94;7280096;19;152371;-51
2022/01/09 01:10:48;;;;;;;;;;;;;;;20.92;38.98;99575.41;7282377;19;152591;-51
2022/01/09 01:13:16;;;;;;;;;;;;;;;20.94;39.16;99584.31;7281348;19;154165;-51
2022/01/09 01:15:44;;;;;;;;;;;;;;;20.95;38.59;99583.94;7290547;19;151770;-50
2022/01/09 01:18:12;;;;;;;;;;;;;;;20.95;39.04;99585.94;7277314;19;154249;-51
2022/01/09 01:20:40;;;;;;;;;;;;;;;20.97;38.92;99580.81;7276766;19;151848;-50
2022/01/09 01:23:07;;;;;;;;;;;;;;;20.96;38.55;99581.97;7278320;19;153511;-51
2022/01/09 01:25:36;;;;;;;;;;;;;;;20.95;38.65;99594.34;7275948;19;153336;-51
2022/01/09 01:28:03;;;;;;;;;;;;;;;20.94;38.71;99598.34;7278564;19;151733;-51
2022/01/09 01:30:35;;;;;;;;;;;;;;;20.95;38.65;99602.78;7277839;19;153895;-51
2022/01/09 01:33:07;;;;;;;;;;;;;;;20.94;38.66;99603.97;7276292;19;154235;-50
2022/01/09 01:35:34;;;;;;;;;;;;;;;20.92;38.44;99618.34;7283197;19;151646;-51
2022/01/09 01:38:01;;;;;;;;;;;;;;;20.90;38.62;99606.63;7274622;19;153884;-51
2022/01/09 01:40:29;;;;;;;;;;;;;;;20.86;38.82;99620.53;7276721;19;151757;-51
2022/01/09 01:42:56;;;;;;;;;;;;;;;20.86;38.56;99623.34;7275977;19;153443;-52
2022/01/09 01:45:23;;;;;;;;;;;;;;;20.84;38.59;99631.28;7276753;19;153326;-51
2022/01/09 01:47:50;;;;;;;;;;;;;;;20.82;38.72;99633.59;7275597;19;151972;-50
2022/01/09 01:50:19;;;;;;;;;;;;;;;20.80;38.67;99633.13;7277484;19;153704;-51
2022/01/09 01:52:50;;;;;;;;;;;;;;;20.78;38.43;99632.66;7276491;19;154345;-51
2022/01/09 01:55:24;;;;;;;;;;;;;;;20.75;38.86;99644.56;7280293;19;151984;-51
2022/01/09 01:57:50;;;;;;;;;;;;;;;20.75;38.69;99643.75;7285780;19;153395;-51
2022/01/09 02:00:17;;;;;;;;;;;;;;;20.70;38.55;99650.38;7272453;19;152331;-50
2022/01/09 02:02:44;;;;;;;;;;;;;;;20.68;38.75;99649.91;7279902;19;153211;-50
2022/01/09 02:05:12;;;;;;;;;;;;;;;20.64;38.67;99657.34;7279381;19;153238;-51
2022/01/09 02:07:39;;;;;;;;;;;;;;;20.60;38.67;99652.75;7279393;19;152966;-51
2022/01/09 02:10:08;;;;;;;;;;;;;;;20.59;39.13;99653.91;7280655;19;153843;-50
2022/01/09 02:12:37;;;;;;;;;;;;;;;20.61;39.24;99660.84;7278669;19;154067;-51
2022/01/09 02:15:24;;;;;;;;;;;;;;;20.61;39.63;99658.03;7278623;19;152874;-51
2022/01/09 02:17:51;;;;;;;;;;;;;;;20.57;39.49;99657.09;7278501;19;154025;-51
2022/01/09 02:20:18;;;;;;;;;;;;;;;20.53;39.36;99661.75;7284008;19;154328;-51
2022/01/09 02:22:45;;;;;;;;;;;;;;;20.50;39.51;99661.56;7281104;19;153560;-50
2022/01/09 02:25:13;;;;;;;;;;;;;;;20.48;39.27;99670.34;7278644;19;153284;-50
2022/01/09 02:27:40;;;;;;;;;;;;;;;20.46;39.34;99669.84;7277881;19;152009;-50
2022/01/09 02:30:08;;;;;;;;;;;;;;;20.43;39.56;99684.56;7279023;19;153620;-50
2022/01/09 02:32:35;;;;;;;;;;;;;;;20.39;39.98;99692.84;7277151;19;153517;-50
2022/01/09 02:35:02;;;;;;;;;;;;;;;20.36;40.20;99681.44;7279895;19;152446;-50
2022/01/09 02:37:29;;;;;;;;;;;;;;;20.34;39.91;99689.41;7277747;19;153553;-50
2022/01/09 02:39:56;;;;;;;;;;;;;;;20.31;40.16;99692.84;7276447;19;153423;-50
2022/01/09 02:42:26;;;;;;;;;;;;;;;20.27;40.13;99677.84;7285523;19;152287;-51
2022/01/09 02:44:55;;;;;;;;;;;;;;;20.25;40.59;99677.38;7279026;19;153472;-50
2022/01/09 02:47:23;;;;;;;;;;;;;;;20.21;40.65;99679.22;7280820;19;151567;-50
2022/01/09 02:49:51;;;;;;;;;;;;;;;20.18;40.53;99682.66;7279979;19;153249;-51
2022/01/09 02:57:19;;;;;;;;;;;;;;;20.09;40.82;99688.31;7279663;19;152565;-51
2022/01/09 02:59:46;;;;;;;;;;;;;;;20.06;41.24;99690.97;7281178;19;154140;-50
2022/01/09 03:02:19;;;;;;;;;;;;;;;20.04;41.29;99694.09;7283900;19;152367;-50
2022/01/09 03:04:47;;;;;;;;;;;;;;;19.99;41.07;99697.09;7292476;19;152098;-50
2022/01/09 03:07:14;;;;;;;;;;;;;;;19.95;41.43;99701.72;7285701;19;152979;-51
2022/01/09 03:09:41;;;;;;;;;;;;;;;19.93;41.18;99702.06;7285305;19;153388;-50
2022/01/09 03:12:11;;;;;;;;;;;;;;;19.91;41.36;99701.56;7282727;19;152269;-51
2022/01/09 03:14:38;;;;;;;;;;;;;;;19.87;41.16;99699.78;7286193;19;151933;-50
2022/01/09 03:17:06;;;;;;;;;;;;;;;19.84;41.50;99706.06;7283685;19;152863;-51
2022/01/09 03:19:33;;;;;;;;;;;;;;;19.82;41.29;99711.16;7284377;19;153759;-51
2022/01/09 03:22:00;;;;;;;;;;;;;;;19.76;41.26;99713.31;7283208;19;152373;-51
2022/01/09 03:24:27;;;;;;;;;;;;;;;19.75;41.38;99713.66;7283522;19;153225;-51
2022/01/09 03:26:54;;;;;;;;;;;;;;;19.73;41.46;99714.00;7293029;19;153701;-50
2022/01/09 03:29:21;;;;;;;;;;;;;;;19.70;41.30;99720.28;7287919;19;153183;-51
2022/01/09 03:31:48;;;;;;;;;;;;;;;19.67;41.57;99717.31;7286555;19;153255;-50
2022/01/09 03:34:15;;;;;;;;;;;;;;;19.64;41.56;99727.19;7287575;19;151617;-50
2022/01/09 03:36:42;;;;;;;;;;;;;;;19.61;41.38;99732.66;7285158;19;152340;-51
2022/01/09 03:39:10;;;;;;;;;;;;;;;19.58;41.30;99733.31;7283811;19;153344;-50
2022/01/09 03:41:37;;;;;;;;;;;;;;;19.54;41.29;99744.34;7282467;19;151992;-50
2022/01/09 03:44:04;;;;;;;;;;;;;;;19.53;41.35;99739.91;7282739;19;153805;-51
2022/01/09 03:46:31;;;;;;;;;;;;;;;19.48;41.37;99740.09;7294052;19;153869;-50
2022/01/09 03:48:58;;;;;;;;;;;;;;;19.47;41.75;99744.03;7284774;19;152764;-51
2022/01/09 03:51:32;;;;;;;;;;;;;;;19.42;41.59;99742.19;7283761;19;153725;-50
2022/01/09 03:53:59;;;;;;;;;;;;;;;19.43;41.57;99743.88;7283558;19;152124;-50
2022/01/09 03:56:27;;;;;;;;;;;;;;;19.40;41.65;99747.28;7282866;19;152715;-50
2022/01/09 03:58:55;;;;;;;;;;;;;;;19.36;41.87;99745.47;7283529;19;153574;-51
2022/01/09 04:01:22;;;;;;;;;;;;;;;19.34;41.82;99743.03;7283301;19;152482;-50
2022/01/09 04:03:50;;;;;;;;;;;;;;;19.32;41.82;99750.91;7284622;19;153165;-49
2022/01/09 04:06:17;;;;;;;;;;;;;;;19.31;41.72;99751.22;7281365;19;153892;-49
2022/01/09 04:08:44;;;;;;;;;;;;;;;19.26;41.76;99743.81;7289143;19;152753;-50
2022/01/09 04:11:14;;;;;;;;;;;;;;;19.21;41.89;99738.41;7276799;19;154150;-50
2022/01/09 04:13:41;;;;;;;;;;;;;;;19.15;42.21;99745.31;7284267;19;152240;-50
2022/01/09 04:16:08;;;;;;;;;;;;;;;19.16;41.94;99737.75;7283797;19;153256;-52
2022/01/09 04:18:35;;;;;;;;;;;;;;;19.13;42.17;99742.00;7284026;19;153430;-50
2022/01/09 04:21:02;;;;;;;;;;;;;;;19.12;41.85;99753.56;7284316;19;151714;-51
2022/01/09 04:23:29;;;;;;;;;;;;;;;19.08;42.09;99750.56;7281650;19;153469;-50
2022/01/09 04:25:56;;;;;;;;;;;;;;;19.04;42.34;99743.97;7282750;19;154167;-50
2022/01/09 04:28:23;;;;;;;;;;;;;;;19.02;42.28;99740.69;7283685;19;151993;-50
2022/01/09 04:30:50;;;;;;;;;;;;;;;18.98;42.24;99743.34;7290508;19;152795;-51
2022/01/09 04:33:18;;;;;;;;;;;;;;;18.96;42.35;99742.81;7283673;19;151861;-50
2022/01/09 04:35:51;;;;;;;;;;;;;;;18.93;42.37;99743.50;7281483;19;153386;-51
2022/01/09 04:38:18;;;;;;;;;;;;;;;18.88;42.24;99738.03;7282503;19;154150;-50
2022/01/09 04:40:45;;;;;;;;;;;;;;;18.87;42.37;99744.78;7283296;19;152106;-50
2022/01/09 04:43:14;;;;;;;;;;;;;;;18.86;42.34;99745.09;7283634;19;152872;-51
2022/01/09 04:45:41;;;;;;;;;;;;;;;18.84;42.45;99739.84;7282306;19;153841;-50
2022/01/09 04:48:10;;;;;;;;;;;;;;;18.81;42.39;99748.06;7281032;19;151911;-51
2022/01/09 04:50:39;;;;;;;;;;;;;;;18.81;42.60;99748.88;7284471;19;154078;-50
2022/01/09 04:53:08;;;;;;;;;;;;;;;18.76;42.76;99751.03;7289721;19;153487;-50
2022/01/09 04:55:37;;;;;;;;;;;;;;;18.75;42.67;99754.97;7282650;19;153411;-51
2022/01/09 04:58:04;;;;;;;;;;;;;;;18.72;42.63;99762.03;7280383;19;155379;-51
2022/01/09 05:00:31;;;;;;;;;;;;;;;18.71;42.81;99773.56;7281458;19;151948;-51
2022/01/09 05:02:59;;;;;;;;;;;;;;;18.70;43.19;99771.91;7280631;19;153745;-54
2022/01/09 05:05:26;;;;;;;;;;;;;;;18.73;43.21;99774.03;7281591;19;154862;-52
2022/01/09 05:07:53;;;;;;;;;;;;;;;18.66;43.33;99774.53;7281070;19;152507;-51
2022/01/09 05:10:20;;;;;;;;;;;;;;;18.66;43.26;99788.53;7282699;19;153508;-51
2022/01/09 05:12:47;;;;;;;;;;;;;;;18.64;43.15;99790.81;7279814;19;154315;-51
2022/01/09 05:15:19;;;;;;;;;;;;;;;18.57;43.21;99796.88;7286606;19;151878;-51
2022/01/09 05:17:46;;;;;;;;;;;;;;;18.54;43.21;99791.91;7280347;19;154007;-51
2022/01/09 05:20:14;;;;;;;;;;;;;;;18.55;43.04;99793.56;7282287;19;152413;-50
2022/01/09 05:22:41;;;;;;;;;;;;;;;18.52;43.13;99788.59;7278839;19;153661;-50
2022/01/09 05:25:08;;;;;;;;;;;;;;;18.50;42.99;99796.47;7280986;19;153956;-51
2022/01/09 05:27:37;;;;;;;;;;;;;;;18.48;42.88;99796.00;7279291;19;151783;-51
2022/01/09 05:30:05;;;;;;;;;;;;;;;18.44;43.12;99806.16;7282024;19;152739;-51
2022/01/09 05:32:32;;;;;;;;;;;;;;;18.43;43.06;99801.72;7278426;19;154660;-50
2022/01/09 05:34:59;;;;;;;;;;;;;;;18.44;43.00;99802.56;7283187;19;151668;-50
2022/01/09 05:37:26;;;;;;;;;;;;;;;18.39;43.31;99800.72;7289019;19;153262;-50
2022/01/09 05:39:54;;;;;;;;;;;;;;;18.35;43.27;99798.91;7281860;19;152182;-50
2022/01/09 05:42:22;;;;;;;;;;;;;;;18.37;43.47;99799.38;7279317;19;153312;-50
2022/01/09 05:44:49;;;;;;;;;;;;;;;18.33;43.44;99806.78;7279820;19;152445;-51
2022/01/09 05:47:16;;;;;;;;;;;;;;;18.34;43.32;99798.06;7278623;19;152673;-51
2022/01/09 05:49:43;;;;;;;;;;;;;;;18.29;43.82;99800.19;7281818;19;153782;-51
2022/01/09 05:52:10;;;;;;;;;;;;;;;18.27;43.61;99794.91;7281165;19;154420;-50
2022/01/09 05:54:37;;;;;;;;;;;;;;;18.30;43.60;99804.63;7280971;19;152289;-51
2022/01/09 05:57:05;;;;;;;;;;;;;;;18.26;43.78;99801.63;7287500;19;153586;-51
2022/01/09 05:59:32;;;;;;;;;;;;;;;18.27;43.84;99811.66;7281075;19;152243;-50
2022/01/09 06:01:59;;;;;;;;;;;;;;;18.27;43.68;99808.03;7279579;19;153536;-50
2022/01/09 06:04:26;;;;;;;;;;;;;;;18.25;43.83;99810.34;7279961;19;154276;-51
2022/01/09 06:06:54;;;;;;;;;;;;;;;18.21;43.90;99812.97;7281114;19;151979;-51
2022/01/09 06:09:22;;;;;;;;;;;;;;;18.18;43.85;99808.00;7276861;19;152130;-51
2022/01/09 06:11:49;;;;;;;;;;;;;;;18.18;44.06;99808.00;7278344;19;153455;-50
2022/01/09 06:14:16;;;;;;;;;;;;;;;18.17;43.81;99809.13;7277539;19;152241;-51
2022/01/09 06:16:44;;;;;;;;;;;;;;;18.14;44.12;99818.19;7278448;19;152184;-50
2022/01/09 06:19:11;;;;;;;;;;;;;;;18.14;43.97;99812.59;7287106;19;154187;-51
2022/01/09 06:21:38;;;;;;;;;;;;;;;18.12;44.19;99812.09;7278211;19;152798;-51
2022/01/09 06:24:05;;;;;;;;;;;;;;;18.09;43.88;99805.16;7278391;19;153621;-51
2022/01/09 06:26:32;;;;;;;;;;;;;;;18.09;44.12;99802.38;7280093;19;152011;-50
2022/01/09 06:28:59;;;;;;;;;;;;;;;18.07;43.70;99810.25;7277669;19;152218;-51
2022/01/09 06:31:26;;;;;;;;;;;;;;;18.07;43.76;99809.44;7277954;19;154555;-50
2022/01/09 06:33:53;;;;;;;;;;;;;;;18.05;44.02;99804.16;7281323;19;151762;-50
2022/01/09 06:36:20;;;;;;;;;;;;;;;17.99;44.00;99813.81;7286658;19;153247;-50
2022/01/09 06:38:48;;;;;;;;;;;;;;;18.00;44.01;99821.06;7282697;19;153400;-51
2022/01/09 06:41:15;;;;;;;;;;;;;;;17.95;44.36;99823.97;7295140;19;152418;-51
2022/01/09 06:43:44;;;;;;;;;;;;;;;17.98;44.31;99823.34;7282897;19;154095;-50
2022/01/09 06:46:11;;;;;;;;;;;;;;;17.94;44.30;99818.72;7286810;19;152356;-50
2022/01/09 06:48:38;;;;;;;;;;;;;;;17.91;44.19;99825.75;7282669;19;153818;-50
2022/01/09 06:51:05;;;;;;;;;;;;;;;17.93;44.17;99820.69;7282951;19;152904;-51
2022/01/09 06:53:32;;;;;;;;;;;;;;;17.89;44.37;99835.63;7286304;19;152205;-50
2022/01/09 06:55:59;;;;;;;;;;;;;;;17.87;44.50;99833.13;7288441;19;152931;-51
2022/01/09 06:58:26;;;;;;;;;;;;;;;17.85;44.38;99841.03;7285823;19;153428;-51
2022/01/09 07:00:53;;;;;;;;;;;;;;;17.84;44.36;99841.31;7286207;19;151959;-50
2022/01/09 07:03:21;;;;;;;;;;;;;;;17.81;44.31;99848.34;7289967;19;153183;-51
2022/01/09 07:05:48;;;;;;;;;;;;;;;17.81;44.37;99856.75;7284547;19;152147;-51
2022/01/09 07:08:15;;;;;;;;;;;;;;;17.80;44.55;99863.50;7284611;19;152812;-50
2022/01/09 07:10:42;;;;;;;;;;;;;;;17.76;44.53;99857.69;7283947;19;154398;-50
2022/01/09 07:13:09;;;;;;;;;;;;;;;17.76;44.25;99866.06;7285374;19;151553;-51
2022/01/09 07:15:36;;;;;;;;;;;;;;;17.74;44.42;99865.56;7282531;19;152269;-51
2022/01/09 07:18:03;;;;;;;;;;;;;;;17.70;44.73;99866.53;7285038;19;154455;-51
2022/01/09 07:20:32;;;;;;;;;;;;;;;17.72;44.44;99879.03;7285666;19;152222;-50
2022/01/09 07:22:59;;;;;;;;;;;;;;;17.70;44.24;99881.31;7282172;19;153640;-51
2022/01/09 07:25:26;;;;;;;;;;;;;;;17.71;44.57;99882.16;7291741;19;153511;-51
2022/01/09 07:27:53;;;;;;;;;;;;;;;17.65;44.68;99891.78;7286512;19;153768;-50
2022/01/09 07:30:20;;;;;;;;;;;;;;;17.66;44.68;99902.66;7285634;19;153674;-50
2022/01/09 07:32:47;;;;;;;;;;;;;;;17.59;44.73;99902.22;7285398;19;151921;-49
2022/01/09 07:35:14;;;;;;;;;;;;;;;17.60;44.33;99901.09;7285752;19;153597;-50
2022/01/09 07:37:41;;;;;;;;;;;;;;;17.58;44.50;99903.38;7282704;19;152886;-51
2022/01/09 07:40:09;;;;;;;;;;;;;;;17.57;44.46;99898.91;7284440;19;151679;-51
2022/01/09 07:42:36;;;;;;;;;;;;;;;17.54;44.77;99896.72;7282843;19;153148;-51
2022/01/09 07:45:06;;;;;;;;;;;;;;;17.52;44.79;99901.81;7281591;19;153960;-50
2022/01/09 07:47:34;;;;;;;;;;;;;;;17.54;44.82;99902.31;7290288;19;152000;-51
2022/01/09 07:50:02;;;;;;;;;;;;;;;17.52;44.66;99901.81;7283218;19;153960;-50
2022/01/09 07:52:29;;;;;;;;;;;;;;;17.47;45.05;99898.31;7281918;19;152453;-50
2022/01/09 07:54:56;;;;;;;;;;;;;;;17.50;44.90;99903.25;7282302;19;153507;-51
2022/01/09 07:57:23;;;;;;;;;;;;;;;17.45;45.14;99908.94;7283806;19;153713;-51
2022/01/09 07:59:50;;;;;;;;;;;;;;;17.47;45.09;99912.28;7286028;19;152052;-51
2022/01/09 08:02:17;;;;;;;;;;;;;;;17.41;44.83;99913.50;7283201;19;152234;-51
2022/01/09 08:04:44;;;;;;;;;;;;;;;17.41;44.84;99919.09;7283618;19;153334;-51
2022/01/09 08:07:11;;;;;;;;;;;;;;;17.40;44.96;99923.06;7291815;19;151732;-50
2022/01/09 08:09:39;;;;;;;;;;;;;;;17.40;45.25;99926.63;7283445;19;153349;-50
2022/01/09 08:12:10;;;;;;;;;;;;;;;17.40;45.35;99934.22;7286971;19;152265;-51
2022/01/09 08:14:38;;;;;;;;;;;;;;;17.35;45.44;99935.94;7283555;19;153163;-50
2022/01/09 08:17:05;;;;;;;;;;;;;;;17.33;45.65;99929.88;7280623;19;154196;-51
2022/01/09 08:19:32;;;;;;;;;;;;;;;17.35;45.54;99932.38;7281095;19;152003;-51
2022/01/09 08:21:59;;;;;;;;;;;;;;;17.31;45.66;99926.56;7283706;19;152838;-51
2022/01/09 08:24:26;;;;;;;;;;;;;;;17.35;45.54;99924.00;7282625;19;154407;-50
2022/01/09 08:26:53;;;;;;;;;;;;;;;17.34;45.58;99925.13;7283988;19;151877;-51
2022/01/09 08:29:20;;;;;;;;;;;;;;;17.34;45.22;99937.13;7288192;19;153077;-51
2022/01/09 08:31:47;;;;;;;;;;;;;;;17.34;45.26;99936.28;7282076;19;151770;-52
2022/01/09 08:34:15;;;;;;;;;;;;;;;17.32;44.56;99939.38;7282885;19;153680;-52
2022/01/09 08:36:42;;;;;;;;;;;;;;;17.39;44.68;99940.94;7279527;19;154137;-51
2022/01/09 08:39:10;;;;;;;;;;;;;;;17.41;44.63;99941.44;7282160;19;152121;-50
2022/01/09 08:41:38;;;;;;;;;;;;;;;17.44;45.30;99946.41;7283937;19;153654;-51
2022/01/09 08:44:06;;;;;;;;;;;;;;;17.47;45.69;99942.97;7276672;19;152309;-51
2022/01/09 08:46:34;;;;;;;;;;;;;;;17.53;45.85;99952.91;7281066;19;152269;-51
2022/01/09 08:49:02;;;;;;;;;;;;;;;17.56;46.46;99946.69;7282707;19;152499;-51
2022/01/09 08:51:29;;;;;;;;;;;;;;;17.61;46.42;99946.63;7289133;19;154089;-51
2022/01/09 08:53:58;;;;;;;;;;;;;;;17.65;46.74;99947.63;7282296;19;152890;-51
2022/01/09 08:56:25;;;;;;;;;;;;;;;17.69;46.94;99949.50;7280580;19;152831;-50
2022/01/09 08:58:57;;;;;;;;;;;;;;;17.75;47.20;99947.41;7280035;19;152169;-50
2022/01/09 09:01:42;;;;;;;;;;;;;;;17.82;46.99;99950.59;7282696;19;152102;-51
2022/01/09 09:04:09;;;;;;;;;;;;;;;17.88;46.83;99957.72;7275716;19;154473;-50
2022/01/09 09:06:37;;;;;;;;;;;;;;;17.95;46.17;99958.09;7282865;19;152227;-50
2022/01/09 09:09:04;;;;;;;;;;;;;;;18.00;46.57;99955.19;7279337;19;152719;-51
2022/01/09 09:11:31;;;;;;;;;;;;;;;18.05;46.57;99955.09;7281395;19;154135;-51
2022/01/09 09:13:58;;;;;;;;;;;;;;;18.11;46.83;99962.22;7288744;19;151944;-51
2022/01/09 09:16:25;;;;;;;;;;;;;;;18.16;46.05;99958.47;7281262;19;154107;-51
2022/01/09 09:18:52;;;;;;;;;;;;;;;18.22;46.00;99963.59;7282004;19;152055;-50
2022/01/09 09:21:19;;;;;;;;;;;;;;;18.28;45.94;99972.69;7282928;19;153367;-50
2022/01/09 09:23:46;;;;;;;;;;;;;;;18.35;45.81;99972.28;7278796;19;154644;-50
2022/01/09 09:26:15;;;;;;;;;;;;;;;18.40;45.47;99975.75;7280356;19;152481;-50
2022/01/09 09:28:43;;;;;;;;;;;;;;;18.47;45.72;99969.72;7280317;19;152149;-51
2022/01/09 09:31:10;;;;;;;;;;;;;;;18.51;45.42;99959.53;7280451;19;154072;-51
2022/01/09 09:33:37;;;;;;;;;;;;;;;18.58;45.36;99971.13;7281054;19;152024;-51
2022/01/09 09:36:05;;;;;;;;;;;;;;;18.64;45.24;99969.84;7286755;19;152915;-51
2022/01/09 09:38:32;;;;;;;;;;;;;;;18.70;45.04;99960.19;7279425;19;151878;-51
2022/01/09 09:40:59;;;;;;;;;;;;;;;18.75;44.83;99965.66;7282273;19;152840;-51
2022/01/09 09:43:26;;;;;;;;;;;;;;;18.81;44.82;99975.53;7277209;19;153389;-50
2022/01/09 09:45:54;;;;;;;;;;;;;;;18.86;44.39;99982.97;7281440;19;151822;-51
2022/01/09 09:48:22;;;;;;;;;;;;;;;18.93;44.27;99980.56;7279136;19;152724;-51
2022/01/09 09:50:49;;;;;;;;;;;;;;;18.99;44.90;99987.66;7280364;19;155021;-51
2022/01/09 09:53:16;;;;;;;;;;;;;;;19.03;44.68;99989.50;7281312;19;151632;-51
2022/01/09 09:55:45;;;;;;;;;;;;;;;19.09;44.83;100001.38;7281502;19;153694;-51
2022/01/09 09:58:12;;;;;;;;;;;;;;;19.15;44.38;100007.69;7283174;19;152537;-51
2022/01/09 10:00:39;;;;;;;;;;;;;;;19.21;44.45;100009.19;7281269;19;152864;-51
2022/01/09 10:03:07;;;;;;;;;;;;;;;19.25;44.47;100015.81;7279332;19;153521;-51
2022/01/09 10:05:36;;;;;;;;;;;;;;;19.30;44.18;100027.69;7282165;19;152807;-51
2022/01/09 10:08:06;;;;;;;;;;;;;;;19.35;43.82;100021.94;7281000;19;152498;-51
2022/01/09 10:10:33;;;;;;;;;;;;;;;19.40;43.81;100015.34;7284614;19;153867;-51
2022/01/09 10:13:05;;;;;;;;;;;;;;;19.45;43.76;100015.25;7286409;19;151714;-51
2022/01/09 10:15:42;;;;;;;;;;;;;;;19.50;43.70;100006.69;7289686;19;153102;-50
2022/01/09 10:18:09;;;;;;;;;;;;;;;19.56;43.79;100001.78;7294535;19;153245;-51
2022/01/09 10:20:40;;;;;;;;;;;;;;;19.60;43.80;100000.81;7287365;19;153650;-51
2022/01/09 10:23:07;;;;;;;;;;;;;;;19.65;43.58;99997.03;7285345;19;153458;-50
2022/01/09 10:25:37;;;;;;;;;;;;;;;19.70;43.42;99997.72;7286930;19;152140;-51
2022/01/09 10:28:05;;;;;;;;;;;;;;;19.75;43.21;100005.13;7284390;19;152843;-51
2022/01/09 10:30:37;;;;;;;;;;;;;;;19.78;43.52;99999.69;7285656;19;154288;-51
2022/01/09 10:33:07;;;;;;;;;;;;;;;19.83;43.21;100007.97;7285171;19;151859;-51
2022/01/09 10:35:36;;;;;;;;;;;;;;;19.87;42.93;100003.34;7286661;19;153982;-50
2022/01/09 10:38:05;;;;;;;;;;;;;;;19.89;43.29;99998.25;7288190;19;153347;-50
2022/01/09 10:40:34;;;;;;;;;;;;;;;19.93;42.87;100002.03;7293979;19;151969;-51
2022/01/09 10:43:03;;;;;;;;;;;;;;;19.97;42.81;100003.03;7284021;19;153951;-51
2022/01/09 10:45:31;;;;;;;;;;;;;;;20.01;42.87;100010.78;7285836;19;152271;-51
2022/01/09 10:48:02;;;;;;;;;;;;;;;20.04;42.95;100018.53;7286848;19;153308;-51
2022/01/09 10:50:30;;;;;;;;;;;;;;;20.05;42.50;100025.78;7285235;19;153095;-51
2022/01/09 10:53:00;;;;;;;;;;;;;;;20.07;42.60;100020.69;7286023;19;151930;-51
2022/01/09 10:55:31;;;;;;;;;;;;;;;20.08;42.59;100031.56;7286091;19;153350;-51
2022/01/09 10:57:58;;;;;;;;;;;;;;;20.09;42.53;100036.03;7284130;19;152665;-51
2022/01/09 11:00:25;;;;;;;;;;;;;;;20.10;42.65;100034.88;7284133;19;152867;-51
2022/01/09 11:02:52;;;;;;;;;;;;;;;20.11;42.15;100041.31;7289914;19;153938;-51
2022/01/09 11:05:19;;;;;;;;;;;;;;;20.09;42.53;100035.19;7283953;19;152239;-51
2022/01/09 11:07:49;;;;;;;;;;;;;;;20.09;42.57;100038.84;7284742;19;152833;-51
2022/01/09 11:10:18;;;;;;;;;;;;;;;20.10;42.19;100042.47;7284506;19;153844;-51
2022/01/09 11:12:48;;;;;;;;;;;;;;;20.09;42.06;100044.44;7283295;19;151767;-52
2022/01/09 11:15:19;;;;;;;;;;;;;;;19.98;41.79;100034.72;7283995;19;154039;-52
2022/01/09 11:17:47;;;;;;;;;;;;;;;19.91;41.24;100040.78;7283645;19;154648;-52
2022/01/09 11:20:14;;;;;;;;;;;;;;;19.85;40.83;100050.50;7282805;19;152005;-51
2022/01/09 11:22:43;;;;;;;;;;;;;;;19.82;40.59;100050.31;7284422;19;153822;-51
2022/01/09 11:25:12;;;;;;;;;;;;;;;19.80;40.69;100066.66;7288346;19;153484;-52
2022/01/09 11:27:45;;;;;;;;;;;;;;;19.76;40.26;100058.03;7281438;19;153394;-51
2022/01/09 11:30:17;;;;;;;;;;;;;;;19.71;40.28;100051.78;7280910;19;154016;-52
2022/01/09 11:32:49;;;;;;;;;;;;;;;19.69;39.73;100057.72;7281528;19;152472;-51
2022/01/09 11:35:25;;;;;;;;;;;;;;;19.68;39.66;100049.63;7281481;19;152817;-51
2022/01/09 11:37:55;;;;;;;;;;;;;;;19.62;39.64;100048.97;7278995;19;154484;-51
2022/01/09 11:40:25;;;;;;;;;;;;;;;19.60;39.87;100054.03;7286592;19;151992;-52
2022/01/09 11:42:55;;;;;;;;;;;;;;;19.57;39.64;100049.09;7285545;19;153047;-52
2022/01/09 11:45:25;;;;;;;;;;;;;;;19.53;39.48;100054.50;7280135;19;153473;-51
2022/01/09 11:47:55;;;;;;;;;;;;;;;19.51;39.26;100056.81;7289130;19;151944;-51
2022/01/09 11:50:22;;;;;;;;;;;;;;;19.49;39.75;100066.69;7275039;19;153728;-51
2022/01/09 11:52:52;;;;;;;;;;;;;;;19.46;39.51;100042.13;7278455;19;152338;-52
2022/01/09 11:55:32;;;;;;;;;;;;;;;19.44;39.65;100050.84;7278340;19;152898;-52
2022/01/09 11:58:02;;;;;;;;;;;;;;;19.42;39.61;100057.91;7277137;19;154129;-52
2022/01/09 12:00:31;;;;;;;;;;;;;;;19.41;38.85;100051.47;7279207;19;152258;-52
2022/01/09 12:02:59;;;;;;;;;;;;;;;19.45;38.76;100041.28;7281047;19;152786;-52
2022/01/09 12:05:27;;;;;;;;;;;;;;;19.49;38.66;100035.84;7275994;19;152550;-52
2022/01/09 12:07:55;;;;;;;;;;;;;;;19.52;38.77;100038.88;7283437;19;151966;-51
2022/01/09 12:10:23;;;;;;;;;;;;;;;19.56;39.00;100041.00;7279276;19;154112;-52
2022/01/09 12:12:53;;;;;;;;;;;;;;;19.59;38.98;100043.97;7277911;19;152290;-51
2022/01/09 12:15:23;;;;;;;;;;;;;;;19.61;38.53;100035.25;7274374;19;153492;-52
2022/01/09 12:17:50;;;;;;;;;;;;;;;19.65;38.72;100045.50;7277563;19;153314;-52
2022/01/09 12:20:21;;;;;;;;;;;;;;;19.68;39.12;100039.22;7278733;19;151695;-52
2022/01/09 12:22:49;;;;;;;;;;;;;;;19.75;39.03;100038.78;7278403;19;153954;-52
2022/01/09 12:25:19;;;;;;;;;;;;;;;19.76;38.59;100021.59;7276353;19;153943;-52
2022/01/09 12:27:48;;;;;;;;;;;;;;;19.85;38.73;100007.66;7281668;19;152456;-52
2022/01/09 12:30:18;;;;;;;;;;;;;;;19.85;38.91;100022.47;7285059;19;153458;-52
2022/01/09 12:32:45;;;;;;;;;;;;;;;19.87;39.19;100010.94;7275005;19;152144;-52
2022/01/09 12:35:15;;;;;;;;;;;;;;;19.94;39.02;100012.09;7277665;19;152206;-52
2022/01/09 12:37:44;;;;;;;;;;;;;;;19.96;38.64;100018.19;7275867;19;154121;-52
2022/01/09 12:40:14;;;;;;;;;;;;;;;20.01;38.74;100022.84;7276959;19;152606;-52
2022/01/09 12:42:46;;;;;;;;;;;;;;;20.05;39.06;100028.59;7277999;19;152541;-52
2022/01/09 12:45:16;;;;;;;;;;;;;;;20.10;38.63;100034.88;7275015;19;154509;-52